createdAt,value
2022-09-18T00:00:56.433Z,23.57
2022-09-18T00:05:59.093Z,23.57
2022-09-18T00:11:04.354Z,23.46
2022-09-18T00:16:09.598Z,23.38
2022-09-18T00:21:13.495Z,23.29
2022-09-18T00:26:18.308Z,23.22
2022-09-18T00:31:25.557Z,23.14
2022-09-18T00:36:29.392Z,23.10
2022-09-18T00:41:33.368Z,23.04
2022-09-18T00:46:37.676Z,22.96
2022-09-18T00:51:40.759Z,22.95
2022-09-18T00:56:43.979Z,22.97
2022-09-18T01:01:48.089Z,22.97
2022-09-18T01:06:53.445Z,23.00
2022-09-18T01:11:59.161Z,22.95
2022-09-18T01:17:06.287Z,22.93
2022-09-18T01:22:15.940Z,22.90
2022-09-18T01:27:23.231Z,22.89
2022-09-18T01:32:29.092Z,22.89
2022-09-18T01:37:33.934Z,22.84
2022-09-18T01:42:37.623Z,22.85
2022-09-18T01:47:43.119Z,22.83
2022-09-18T01:52:47.843Z,22.79
2022-09-18T01:57:52.690Z,22.75
2022-09-18T02:02:59.597Z,22.72
2022-09-18T02:08:09.210Z,22.71
2022-09-18T02:13:12.554Z,22.67
2022-09-18T02:18:19.466Z,22.66
2022-09-18T02:23:22.363Z,22.63
2022-09-18T02:28:25.341Z,22.60
2022-09-18T02:33:31.019Z,22.55
2022-09-18T02:38:36.846Z,22.57
2022-09-18T02:43:43.212Z,22.58
2022-09-18T02:48:50.231Z,22.43
2022-09-18T02:53:57.464Z,22.39
2022-09-18T02:59:03.617Z,22.30
2022-09-18T03:04:12.166Z,22.26
2022-09-18T03:09:34.818Z,22.24
2022-09-18T03:14:37.575Z,22.18
2022-09-18T03:19:44.527Z,22.12
2022-09-18T03:24:47.211Z,21.96
2022-09-18T03:29:51.856Z,21.99
2022-09-18T03:34:59.320Z,21.92
2022-09-18T03:40:04.103Z,21.84
2022-09-18T03:45:08.278Z,21.81
2022-09-18T03:50:12.589Z,21.78
2022-09-18T03:55:15.900Z,21.73
2022-09-18T04:00:37.213Z,21.73
2022-09-18T04:05:48.894Z,21.72
2022-09-18T04:11:26.672Z,21.70
2022-09-18T04:16:29.767Z,21.70
2022-09-18T04:21:33.903Z,21.67
2022-09-18T04:26:36.758Z,21.64
2022-09-18T04:31:40.193Z,21.62
2022-09-18T04:36:49.005Z,21.57
2022-09-18T04:41:52.185Z,21.54
2022-09-18T04:46:56.001Z,21.50
2022-09-18T04:52:00.313Z,21.53
2022-09-18T04:57:03.932Z,21.47
2022-09-18T05:02:06.739Z,21.44
2022-09-18T05:07:12.297Z,21.40
2022-09-18T05:12:15.124Z,21.39
2022-09-18T05:17:18.065Z,21.37
2022-09-18T05:22:40.786Z,21.33
2022-09-18T05:27:54.435Z,21.30
2022-09-18T05:32:59.329Z,21.29
2022-09-18T05:38:05.460Z,21.27
2022-09-18T05:43:08.498Z,21.27
2022-09-18T05:48:13.202Z,21.31
2022-09-18T05:53:18.462Z,20.31
2022-09-18T05:58:29.651Z,19.65
2022-09-18T06:03:32.669Z,19.65
2022-09-18T06:08:38.176Z,19.73
2022-09-18T06:13:41.178Z,19.95
2022-09-18T06:18:43.856Z,20.06
2022-09-18T06:23:47.895Z,20.19
2022-09-18T06:29:00.125Z,20.25
2022-09-18T06:34:07.732Z,20.29
2022-09-18T06:39:11.793Z,20.37
2022-09-18T06:44:14.683Z,20.42
2022-09-18T06:49:24.500Z,20.45
2022-09-18T06:54:28.528Z,20.46
2022-09-18T06:59:31.284Z,20.48
2022-09-18T07:04:35.104Z,20.51
2022-09-18T07:09:39.157Z,20.55
2022-09-18T07:14:51.642Z,20.61
2022-09-18T07:19:55.479Z,20.62
2022-09-18T07:25:05.025Z,20.66
2022-09-18T07:30:08.784Z,20.69
2022-09-18T07:35:11.703Z,20.75
2022-09-18T07:40:16.229Z,20.73
2022-09-18T07:45:40.502Z,20.73
2022-09-18T07:50:43.232Z,20.75
2022-09-18T07:55:48.015Z,20.72
2022-09-18T08:00:51.299Z,20.79
2022-09-18T08:05:55.795Z,20.82
2022-09-18T08:11:00.793Z,20.89
2022-09-18T08:16:21.711Z,20.81
2022-09-18T08:21:43.255Z,20.85
2022-09-18T08:26:49.903Z,20.85
2022-09-18T08:31:52.813Z,20.89
2022-09-18T08:36:58.204Z,20.96
2022-09-18T08:42:30.165Z,20.99
2022-09-18T08:47:36.660Z,21.07
2022-09-18T08:52:43.490Z,21.10
2022-09-18T08:58:04.650Z,20.99
2022-09-18T09:03:20.253Z,20.99
2022-09-18T09:08:38.706Z,20.96
2022-09-18T09:14:10.587Z,21.00
2022-09-18T09:19:26.614Z,20.95
2022-09-18T09:24:32.487Z,20.98
2022-09-18T09:29:43.422Z,21.01
2022-09-18T09:35:22.679Z,21.03
2022-09-18T09:40:54.629Z,21.10
2022-09-18T09:46:01.154Z,21.16
2022-09-18T09:51:06.589Z,21.20
2022-09-18T09:56:13.104Z,21.26
2022-09-18T10:01:19.542Z,21.27
2022-09-18T10:06:32.084Z,21.25
2022-09-18T10:11:35.116Z,21.27
2022-09-18T10:16:41.737Z,21.28
2022-09-18T10:21:46.476Z,21.30
2022-09-18T10:26:50.923Z,21.37
2022-09-18T10:31:56.846Z,21.48
2022-09-18T10:37:01.770Z,21.47
2022-09-18T10:42:05.761Z,21.51
2022-09-18T10:47:12.450Z,21.56
2022-09-18T10:52:27.058Z,21.56
2022-09-18T10:57:31.271Z,21.57
2022-09-18T11:02:41.369Z,21.61
2022-09-18T11:07:48.443Z,21.62
2022-09-18T11:12:55.711Z,21.73
2022-09-18T11:18:08.673Z,21.72
2022-09-18T11:23:16.775Z,21.82
2022-09-18T11:28:24.049Z,21.90
2022-09-18T11:33:29.735Z,21.83
2022-09-18T11:38:35.044Z,21.88
2022-09-18T11:43:38.613Z,21.88
2022-09-18T11:48:45.390Z,21.93
2022-09-18T11:53:51.286Z,21.99
2022-09-18T11:58:56.354Z,22.00
2022-09-18T12:04:04.661Z,22.04
2022-09-18T12:09:10.675Z,22.04
2022-09-18T12:14:17.044Z,22.04
2022-09-18T12:19:33.912Z,22.06
2022-09-18T12:24:36.958Z,22.08
2022-09-18T12:30:13.354Z,22.06
2022-09-18T12:35:21.082Z,21.96
2022-09-18T12:40:33.996Z,21.85
2022-09-18T12:46:04.853Z,21.76
2022-09-18T12:51:18.010Z,21.64
2022-09-18T12:56:30.206Z,21.59
2022-09-18T13:01:34.320Z,21.53
2022-09-18T13:06:42.491Z,21.46
2022-09-18T13:11:47.223Z,21.37
2022-09-18T13:16:52.294Z,21.36
2022-09-18T13:21:56.375Z,21.34
2022-09-18T13:26:59.065Z,21.26
2022-09-18T13:32:02.452Z,21.23
2022-09-18T13:37:07.358Z,21.17
2022-09-18T13:42:10.109Z,21.14
2022-09-18T13:47:14.035Z,21.07
2022-09-18T13:52:42.807Z,21.06
2022-09-18T13:57:45.577Z,21.01
2022-09-18T14:02:48.459Z,21.00
2022-09-18T14:08:14.246Z,20.99
2022-09-18T14:13:31.629Z,20.96
2022-09-18T14:18:36.756Z,20.95
2022-09-18T14:24:05.377Z,20.88
2022-09-18T14:29:11.175Z,20.97
2022-09-18T14:34:16.823Z,20.90
2022-09-18T14:39:25.103Z,20.88
2022-09-18T14:44:28.335Z,20.87
2022-09-18T14:49:33.996Z,20.84
2022-09-18T14:54:41.003Z,20.86
2022-09-18T14:59:46.420Z,20.82
2022-09-18T15:04:49.218Z,20.82
2022-09-18T15:09:55.279Z,20.83
2022-09-18T15:14:59.075Z,20.81
2022-09-18T15:20:02.964Z,20.77
2022-09-18T15:25:12.419Z,20.76
2022-09-18T15:30:16.321Z,20.75
2022-09-18T15:35:20.822Z,20.72
2022-09-18T15:40:28.352Z,20.74
2022-09-18T15:45:31.803Z,20.70
2022-09-18T15:50:39.154Z,20.68
2022-09-18T15:56:11.773Z,20.68
2022-09-18T16:01:27.201Z,20.68
2022-09-18T16:06:32.328Z,20.65
2022-09-18T16:11:44.614Z,20.68
2022-09-18T16:16:47.266Z,20.68
2022-09-18T16:21:49.937Z,20.66
2022-09-18T16:26:54.084Z,20.68
2022-09-18T16:31:57.509Z,20.67
2022-09-18T16:37:00.217Z,20.66
2022-09-18T16:42:08.022Z,20.69
2022-09-18T16:47:12.551Z,20.68
2022-09-18T16:52:15.275Z,20.76
2022-09-18T16:57:21.694Z,20.81
2022-09-18T17:02:26.219Z,20.90
2022-09-18T17:07:29.929Z,21.00
2022-09-18T17:12:34.290Z,21.12
2022-09-18T17:17:37.010Z,21.22
2022-09-18T17:22:39.698Z,21.29
2022-09-18T17:27:44.070Z,21.40
2022-09-18T17:32:48.029Z,21.49
2022-09-18T17:37:51.735Z,21.54
2022-09-18T17:42:56.608Z,21.66
2022-09-18T17:47:59.468Z,21.77
2022-09-18T17:53:02.472Z,21.84
2022-09-18T17:58:06.730Z,21.94
2022-09-18T18:03:09.506Z,21.99
2022-09-18T18:08:12.168Z,22.04
2022-09-18T18:13:17.924Z,22.08
2022-09-18T18:18:20.761Z,22.13
2022-09-18T18:23:23.593Z,22.15
2022-09-18T18:28:30.288Z,22.24
2022-09-18T18:33:33.457Z,22.24
2022-09-18T18:38:36.365Z,22.20
2022-09-18T18:43:41.016Z,22.26
2022-09-18T18:48:44.368Z,22.24
2022-09-18T18:53:47.168Z,22.16
2022-09-18T18:58:55.985Z,22.24
2022-09-18T19:04:00.367Z,22.21
2022-09-18T19:09:05.722Z,22.23
2022-09-18T19:14:11.695Z,22.28
2022-09-18T19:19:15.410Z,22.23
2022-09-18T19:24:19.112Z,22.26
2022-09-18T19:29:23.246Z,22.25
2022-09-18T19:34:26.026Z,22.29
2022-09-18T19:39:28.871Z,22.29
2022-09-18T19:44:35.065Z,22.31
2022-09-18T19:49:38.129Z,22.27
2022-09-18T19:54:40.940Z,22.28
2022-09-18T19:59:44.950Z,22.25
2022-09-18T20:04:47.738Z,22.27
2022-09-18T20:09:51.003Z,22.29
2022-09-18T20:14:56.878Z,22.27
2022-09-18T20:19:59.729Z,22.28
2022-09-18T20:25:02.427Z,22.29
2022-09-18T20:30:07.700Z,22.35
2022-09-18T20:35:10.893Z,22.29
2022-09-18T20:40:14.136Z,22.30
2022-09-18T20:45:18.563Z,22.33
2022-09-18T20:50:25.595Z,22.29
2022-09-18T20:55:28.371Z,22.34
2022-09-18T21:00:32.464Z,22.33
2022-09-18T21:05:35.772Z,22.31
2022-09-18T21:10:46.583Z,22.33
2022-09-18T21:15:50.667Z,22.34
2022-09-18T21:21:01.976Z,22.33
2022-09-18T21:26:14.497Z,22.35
2022-09-18T21:31:21.752Z,22.38
2022-09-18T21:36:25.559Z,22.37
2022-09-18T21:41:28.263Z,22.33
2022-09-18T21:46:34.310Z,22.34
2022-09-18T21:51:37.619Z,22.39
2022-09-18T21:56:40.294Z,22.34
2022-09-18T22:01:44.366Z,22.34
2022-09-18T22:06:47.518Z,22.29
2022-09-18T22:11:50.889Z,22.30
2022-09-18T22:16:56.326Z,22.38
2022-09-18T22:21:59.028Z,22.46
2022-09-18T22:27:08.317Z,22.56
2022-09-18T22:32:12.607Z,22.57
2022-09-18T22:37:15.298Z,22.56
2022-09-18T22:42:18.010Z,22.57
2022-09-18T22:47:21.986Z,22.59
2022-09-18T22:52:24.760Z,22.56
2022-09-18T22:57:27.508Z,22.52
2022-09-18T23:02:32.089Z,22.47
2022-09-18T23:07:38.746Z,22.42
2022-09-18T23:12:41.507Z,22.42
2022-09-18T23:17:46.057Z,22.37
2022-09-18T23:22:48.722Z,22.34
2022-09-18T23:27:53.452Z,22.28
2022-09-18T23:32:57.517Z,22.25
2022-09-18T23:38:00.198Z,22.19
2022-09-18T23:43:03.036Z,22.12
2022-09-18T23:48:07.052Z,22.07
2022-09-18T23:53:09.726Z,22.03
2022-09-18T23:58:12.438Z,21.96
